Neidpath, Canada
Current Conditions -  °F | °C
As of 7:00 AM on Monday 20 Oct 2014 (Local Time) from CYYN Reporting Station
Clear Clear  
Wind Chill: 42°   Ceiling: Unl
Heat Index: 48°   Visibility: 9mi
Dew Point: 39°   Wind: 15mph
Humidity: 71%   Direction: 190°S
Pressure: 29.79"   Gusts: NA
Location:  50.23°N, 107.25°W
Report Text: CYYN 201300Z AUTO 19013KT 9SM CLR 09/04 A2979 RMK SLP097 DENSITY ALT 2700FT
Loading
Personal Weather Stations






























Interactive Weather Map
Tropical Storm Tracking
New forecast layout! Learn more

10-Day Weather Forecast

Advertisements
Track Severe Weather on mobile